Time;durP1;ratioP1;P1;durP2;ratioP2;P2;SDS_P1;SDS_P2;PMS_P1;PMS_P2;Temp;Humidity;BMP_temperature;BMP_pressure;BME280_temperature;BME280_humidity;BME280_pressure;Samples;Min_cycle;Max_cycle;Signal;HPM_P1;HPM_P2
2023/02/14 00:00:03;;;;;;;;;;;4.20;99.90;5.00;101304.00;;;;344461;28;83307;-90
2023/02/14 00:00:16;;;;;;;;;;;4.20;99.90;5.00;101316.00;;;;345779;28;90839;-91
2023/02/14 00:00:27;;;;;;;;;;;4.20;99.90;4.90;101302.00;;;;348544;27;83553;-90
2023/02/14 00:00:39;;;;;;;;;;;4.30;99.90;4.90;101309.00;;;;347091;28;92180;-91
2023/02/14 00:00:51;;;;;;;;;;;4.30;99.90;4.90;101314.00;;;;347423;28;83415;-91
2023/02/14 00:01:09;;;;;;;;;;;4.30;99.90;4.90;101315.00;;;;347157;28;91779;-91
2023/02/14 00:01:21;;;;;;;;;;;4.30;99.90;4.90;101312.00;;;;346192;28;83470;-91
2023/02/14 00:01:33;;;;;;;;;;;4.30;99.90;4.90;101310.00;;;;345739;28;91590;-91
2023/02/14 00:01:45;;;;;;;;;;;4.20;99.90;5.00;101311.00;;;;348967;27;82529;-90
2023/02/14 00:01:57;;;;;;;;;;;4.30;99.90;5.00;101313.00;;;;348529;27;91441;-92
2023/02/14 00:02:08;;;;;;;;;;;4.30;99.90;4.90;101312.00;;;;347459;28;83458;-91
2023/02/14 00:02:20;;;;;;;;;;;4.30;99.90;4.90;101312.00;;;;347231;28;90376;-91
2023/02/14 00:02:32;;;;;;;;;;;4.30;99.90;5.00;101313.00;;;;347632;28;82469;-91
2023/02/14 00:02:44;;;;;;;;;;;4.30;99.90;4.90;101309.00;;;;345659;28;92365;-90
2023/02/14 00:02:56;;;;;;;;;;;4.30;99.90;4.90;101310.00;;;;344783;28;82558;-91
2023/02/14 00:03:08;;;;;;;;;;;4.30;99.90;4.90;101316.00;;;;345849;28;88944;-91
2023/02/14 00:03:20;;;;;;;;;;;4.30;99.90;4.90;101313.00;;;;346219;28;83394;-90
2023/02/14 00:03:31;;;;;;;;;;;4.20;99.90;4.80;101308.00;;;;347062;28;90886;-91
2023/02/14 00:03:43;;;;;;;;;;;4.20;99.90;4.80;101313.00;;;;348593;27;82596;-91
2023/02/14 00:03:59;;;;;;;;;;;4.20;99.90;4.80;101310.00;;;;346948;28;90404;-91
2023/02/14 00:04:11;;;;;;;;;;;4.20;99.90;4.80;101303.00;;;;346125;28;82335;-91
2023/02/14 00:04:23;;;;;;;;;;;4.20;99.90;4.70;101310.00;;;;345827;28;90410;-90
2023/02/14 00:04:37;;;;;;;;;;;4.20;99.90;4.70;101316.00;;;;348843;27;83460;-91
2023/02/14 00:04:49;;;;;;;;;;;4.20;99.90;4.70;101307.00;;;;348372;27;93026;-91
2023/02/14 00:05:00;;;;;;;;;;;4.20;99.90;4.70;101308.00;;;;348997;27;82485;-91
2023/02/14 00:05:12;;;;;;;;;;;4.20;99.90;4.70;101311.00;;;;348606;27;91492;-91
2023/02/14 00:05:24;;;;;;;;;;;4.20;99.90;4.70;101313.00;;;;345946;28;83579;-91
2023/02/14 00:05:36;;;;;;;;;;;4.20;99.90;4.70;101315.00;;;;345684;28;91869;-91
2023/02/14 00:05:48;;;;;;;;;;;4.20;99.90;4.70;101309.00;;;;347580;28;82563;-91
2023/02/14 00:06:07;;;;;;;;;;;4.20;99.90;4.80;101306.00;;;;345816;28;88687;-91
2023/02/14 00:06:18;;;;;;;;;;;4.20;99.90;4.80;101305.00;;;;346129;28;83560;-91
2023/02/14 00:06:33;;;;;;;;;;;4.20;99.90;4.90;101305.00;;;;344422;28;90165;-91
2023/02/14 00:06:45;;;;;;;;;;;4.20;99.90;5.00;101310.00;;;;347427;28;82513;-90
2023/02/14 00:06:57;;;;;;;;;;;4.20;99.90;5.00;101303.00;;;;345632;28;91138;-91
2023/02/14 00:07:09;;;;;;;;;;;4.20;99.90;4.90;101306.00;;;;346141;28;83462;-91
2023/02/14 00:07:21;;;;;;;;;;;4.20;99.90;4.90;101312.00;;;;347201;28;90708;-90
2023/02/14 00:07:33;;;;;;;;;;;4.20;99.90;4.90;101303.00;;;;346070;28;83507;-91
2023/02/14 00:07:45;;;;;;;;;;;4.20;99.90;4.90;101306.00;;;;345819;28;89845;-91
2023/02/14 00:07:57;;;;;;;;;;;4.20;99.90;4.90;101309.00;;;;346338;28;83320;-91
2023/02/14 00:08:08;;;;;;;;;;;4.20;99.90;4.80;101306.00;;;;348444;27;91446;-90
2023/02/14 00:08:20;;;;;;;;;;;4.20;99.90;4.80;101306.00;;;;347610;28;83401;-91
2023/02/14 00:08:32;;;;;;;;;;;4.20;99.90;4.80;101304.00;;;;345764;28;91120;-91
2023/02/14 00:08:44;;;;;;;;;;;4.20;99.90;4.80;101307.00;;;;346286;28;82485;-90
2023/02/14 00:08:56;;;;;;;;;;;4.20;99.90;4.80;101305.00;;;;345701;28;91417;-91
2023/02/14 00:09:10;;;;;;;;;;;4.20;99.90;4.80;101314.00;;;;347618;28;83347;-91
2023/02/14 00:09:22;;;;;;;;;;;4.20;99.90;4.80;101305.00;;;;347189;28;90937;-91
2023/02/14 00:09:34;;;;;;;;;;;4.20;99.90;4.90;101314.00;;;;347335;27;83537;-92
2023/02/14 00:09:45;;;;;;;;;;;4.20;99.90;4.80;101310.00;;;;347112;28;90528;-91
2023/02/14 00:09:57;;;;;;;;;;;4.20;99.90;4.80;101306.00;;;;347697;28;82541;-91
2023/02/14 00:10:10;;;;;;;;;;;4.20;99.90;4.80;101313.00;;;;347015;28;91880;-91
2023/02/14 00:10:22;;;;;;;;;;;4.20;99.90;4.80;101307.00;;;;347621;28;83428;-91
2023/02/14 00:10:34;;;;;;;;;;;4.20;99.90;4.80;101309.00;;;;348718;27;90498;-91
2023/02/14 00:10:45;;;;;;;;;;;4.20;99.90;4.80;101310.00;;;;346172;28;83565;-91
2023/02/14 00:10:57;;;;;;;;;;;4.20;99.90;4.70;101305.00;;;;350152;27;89557;-91
2023/02/14 00:11:10;;;;;;;;;;;4.20;99.90;4.70;101300.00;;;;347632;28;83464;-91
2023/02/14 00:11:22;;;;;;;;;;;4.20;99.90;4.80;101310.00;;;;347294;28;89024;-91
2023/02/14 00:11:34;;;;;;;;;;;4.10;99.90;4.80;101315.00;;;;347572;28;82566;-91
2023/02/14 00:11:46;;;;;;;;;;;4.20;99.90;4.70;101302.00;;;;345940;28;90362;-91
2023/02/14 00:11:58;;;;;;;;;;;4.20;99.90;4.70;101310.00;;;;347843;28;83312;-91
2023/02/14 00:12:10;;;;;;;;;;;4.20;99.90;4.70;101312.00;;;;346159;28;87940;-91
2023/02/14 00:12:21;;;;;;;;;;;4.10;99.90;4.60;101311.00;;;;349352;27;82394;-91
2023/02/14 00:12:33;;;;;;;;;;;4.10;99.90;4.70;101310.00;;;;347307;28;90360;-91
2023/02/14 00:12:45;;;;;;;;;;;4.10;99.90;4.70;101311.00;;;;346349;28;83459;-91
2023/02/14 00:12:57;;;;;;;;;;;4.10;99.90;4.80;101308.00;;;;350101;27;92621;-91
2023/02/14 00:13:08;;;;;;;;;;;4.10;99.90;4.80;101312.00;;;;349269;27;82595;-91
2023/02/14 00:13:20;;;;;;;;;;;4.10;99.90;4.80;101310.00;;;;346017;28;90329;-91
2023/02/14 00:13:32;;;;;;;;;;;4.10;99.90;4.70;101309.00;;;;349549;27;82415;-90
2023/02/14 00:15:20;;;;;;;;;;;4.10;99.90;4.60;101311.00;;;;347406;28;90237;-91
2023/02/14 00:15:23;;;;;;;;;;;4.10;99.90;4.60;101308.00;;;;348947;28;82480;-91
2023/02/14 00:15:35;;;;;;;;;;;4.10;99.90;4.60;101311.00;;;;348510;28;90423;-91
2023/02/14 00:15:47;;;;;;;;;;;4.10;99.90;4.60;101313.00;;;;348863;28;83469;-90
2023/02/14 00:15:59;;;;;;;;;;;4.00;99.90;4.50;101307.00;;;;346778;28;91349;-91
2023/02/14 00:16:11;;;;;;;;;;;4.10;99.90;4.50;101305.00;;;;346080;28;82664;-91
2023/02/14 00:16:22;;;;;;;;;;;4.00;99.90;4.40;101306.00;;;;345768;28;90648;-90
2023/02/14 00:16:34;;;;;;;;;;;4.00;99.90;4.40;101300.00;;;;347587;28;82480;-91
2023/02/14 00:16:46;;;;;;;;;;;4.00;99.90;4.40;101306.00;;;;346917;28;90152;-92
2023/02/14 00:16:58;;;;;;;;;;;4.00;99.90;4.40;101310.00;;;;347317;28;82501;-91
2023/02/14 00:17:10;;;;;;;;;;;4.00;99.90;4.30;101309.00;;;;348407;28;87893;-91
2023/02/14 00:17:22;;;;;;;;;;;4.00;99.90;4.40;101306.00;;;;346274;28;83395;-90
2023/02/14 00:17:33;;;;;;;;;;;4.00;99.90;4.50;101306.00;;;;344248;28;92155;-91
2023/02/14 00:17:45;;;;;;;;;;;4.00;99.90;4.60;101304.00;;;;347460;28;83245;-91
2023/02/14 00:18:01;;;;;;;;;;;4.00;99.90;4.70;101306.00;;;;345696;28;92393;-91
2023/02/14 00:18:12;;;;;;;;;;;4.00;99.90;4.60;101308.00;;;;346113;28;83552;-91
2023/02/14 00:19:02;;;;;;;;;;;4.00;99.90;4.40;101307.00;;;;347160;28;90654;-91
2023/02/14 00:19:02;;;;;;;;;;;4.00;99.90;4.60;101292.00;;;;347365;28;83477;-91
2023/02/14 00:19:18;;;;;;;;;;;4.00;99.90;4.70;101303.00;;;;347144;28;91344;-90
2023/02/14 00:19:30;;;;;;;;;;;4.00;99.90;4.80;101301.00;;;;347593;28;82571;-92
2023/02/14 00:19:42;;;;;;;;;;;4.00;99.90;4.80;101303.00;;;;345872;28;88982;-91
2023/02/14 00:19:54;;;;;;;;;;;4.00;99.90;4.70;101304.00;;;;346120;28;82584;-91
2023/02/14 00:20:06;;;;;;;;;;;4.00;99.90;4.70;101303.00;;;;347164;28;90931;-90
2023/02/14 00:20:18;;;;;;;;;;;4.00;99.90;4.60;101303.00;;;;347564;28;83377;-91
2023/02/14 00:20:30;;;;;;;;;;;4.00;99.90;4.60;101304.00;;;;345823;28;90892;-92
2023/02/14 00:20:42;;;;;;;;;;;4.00;99.90;4.70;101301.00;;;;346342;28;83221;-91
2023/02/14 00:20:58;;;;;;;;;;;4.00;99.90;4.60;101306.00;;;;345507;28;89136;-91
2023/02/14 00:21:11;;;;;;;;;;;4.00;99.90;4.50;101308.00;;;;347549;28;83431;-90
2023/02/14 00:21:22;;;;;;;;;;;4.00;99.90;4.60;101304.00;;;;347077;28;91167;-91
2023/02/14 00:21:35;;;;;;;;;;;4.00;99.90;4.60;101300.00;;;;347588;28;82793;-91
2023/02/14 00:21:47;;;;;;;;;;;4.00;99.90;4.60;101306.00;;;;345763;28;90173;-91
2023/02/14 00:21:59;;;;;;;;;;;4.00;99.90;4.50;101306.00;;;;344826;28;83464;-91
2023/02/14 00:22:10;;;;;;;;;;;4.00;99.90;4.60;101304.00;;;;345675;28;91413;-91
2023/02/14 00:22:22;;;;;;;;;;;4.00;99.90;4.70;101304.00;;;;347627;28;83366;-90
2023/02/14 00:22:34;;;;;;;;;;;4.00;99.90;4.60;101305.00;;;;347092;28;91227;-90
2023/02/14 00:22:46;;;;;;;;;;;4.00;99.90;4.70;101302.00;;;;345808;28;83567;-90
2023/02/14 00:22:59;;;;;;;;;;;4.00;99.90;4.70;101296.00;;;;348726;27;90224;-91
2023/02/14 00:23:11;;;;;;;;;;;4.00;99.90;4.70;101303.00;;;;346208;28;83350;-90
2023/02/14 00:23:23;;;;;;;;;;;4.00;99.90;4.70;101306.00;;;;347030;28;91262;-91
2023/02/14 00:23:35;;;;;;;;;;;4.00;99.90;4.70;101297.00;;;;349003;27;83470;-91
2023/02/14 00:23:46;;;;;;;;;;;4.00;99.90;4.70;101298.00;;;;345839;28;91679;-91
2023/02/14 00:23:58;;;;;;;;;;;4.00;99.90;4.70;101300.00;;;;346303;28;82460;-91
2023/02/14 00:24:28;;;;;;;;;;;4.00;99.90;4.50;101305.00;;;;347004;28;91322;-91
2023/02/14 00:24:40;;;;;;;;;;;4.00;99.90;4.50;101301.00;;;;346205;28;82550;-91
2023/02/14 00:24:52;;;;;;;;;;;4.00;99.90;4.50;101306.00;;;;345420;28;91536;-91
2023/02/14 00:25:04;;;;;;;;;;;3.90;99.90;4.50;101305.00;;;;346204;28;83556;-91
2023/02/14 00:25:17;;;;;;;;;;;4.00;99.90;4.60;101301.00;;;;347218;28;91892;-91
2023/02/14 00:25:29;;;;;;;;;;;3.90;99.90;4.70;101305.00;;;;345984;28;83071;-90
2023/02/14 00:25:40;;;;;;;;;;;3.90;99.90;4.60;101292.00;;;;345479;28;90188;-90
2023/02/14 00:25:52;;;;;;;;;;;3.90;99.90;4.60;101300.00;;;;347680;28;82406;-91
2023/02/14 00:26:04;;;;;;;;;;;3.90;99.90;4.60;101295.00;;;;345806;28;91142;-91
2023/02/14 00:26:16;;;;;;;;;;;4.00;99.90;4.60;101299.00;;;;345819;28;83351;-91
2023/02/14 00:26:28;;;;;;;;;;;4.00;99.90;4.50;101301.00;;;;344257;28;90773;-90
2023/02/14 00:26:39;;;;;;;;;;;3.90;99.90;4.50;101295.00;;;;347515;28;82533;-91
2023/02/14 00:26:52;;;;;;;;;;;3.90;99.90;4.50;101293.00;;;;348412;27;91638;-91
2023/02/14 00:27:03;;;;;;;;;;;3.90;99.90;4.50;101301.00;;;;347565;28;83464;-90
2023/02/14 00:27:15;;;;;;;;;;;3.90;99.90;4.50;101295.00;;;;347170;28;89307;-90
2023/02/14 00:27:28;;;;;;;;;;;3.90;99.90;4.50;101299.00;;;;346158;28;82566;-90
2023/02/14 00:27:40;;;;;;;;;;;3.90;99.90;4.60;101299.00;;;;345721;28;91823;-91
2023/02/14 00:27:54;;;;;;;;;;;3.90;99.90;4.60;101293.00;;;;343457;28;83350;-90
2023/02/14 00:28:05;;;;;;;;;;;3.90;99.90;4.50;101295.00;;;;345621;28;92002;-90
2023/02/14 00:28:17;;;;;;;;;;;3.90;99.90;4.50;101292.00;;;;346195;28;83448;-91
2023/02/14 00:28:29;;;;;;;;;;;3.90;99.90;4.60;101301.00;;;;344401;28;91010;-91
2023/02/14 00:28:41;;;;;;;;;;;3.90;99.90;4.60;101300.00;;;;348716;27;83420;-90
2023/02/14 00:28:52;;;;;;;;;;;3.90;99.90;4.60;101294.00;;;;348412;27;92399;-91
2023/02/14 00:29:05;;;;;;;;;;;3.90;99.90;4.50;101291.00;;;;348901;27;83370;-90
2023/02/14 00:29:19;;;;;;;;;;;3.90;99.90;4.50;101298.00;;;;348391;27;90303;-91
2023/02/14 00:29:31;;;;;;;;;;;3.90;99.90;4.50;101291.00;;;;348950;27;83502;-91
2023/02/14 00:29:43;;;;;;;;;;;3.90;99.90;4.60;101292.00;;;;348728;27;91557;-91
2023/02/14 00:30:00;;;;;;;;;;;3.90;99.90;4.70;101292.00;;;;346387;28;82470;-90
2023/02/14 00:30:12;;;;;;;;;;;3.90;99.90;4.70;101299.00;;;;345827;28;90563;-90
2023/02/14 00:30:24;;;;;;;;;;;3.90;99.90;4.60;101291.00;;;;347523;28;82453;-91
2023/02/14 00:30:36;;;;;;;;;;;3.90;99.90;4.60;101292.00;;;;348201;27;91043;-91
2023/02/14 00:30:48;;;;;;;;;;;3.90;99.90;4.60;101292.00;;;;347428;28;83459;-91
2023/02/14 00:31:00;;;;;;;;;;;3.90;99.90;4.60;101286.00;;;;345886;28;92730;-89
2023/02/14 00:31:13;;;;;;;;;;;3.90;99.90;4.60;101294.00;;;;346194;28;83410;-91
2023/02/14 00:31:25;;;;;;;;;;;3.90;99.90;4.60;101293.00;;;;347118;27;91210;-90
2023/02/14 00:31:37;;;;;;;;;;;3.90;99.90;4.60;101296.00;;;;344825;28;83403;-90
2023/02/14 00:31:49;;;;;;;;;;;3.90;99.90;4.60;101294.00;;;;344350;28;91644;-90
2023/02/14 00:32:01;;;;;;;;;;;3.90;99.90;4.60;101297.00;;;;344698;28;82461;-91
2023/02/14 00:32:13;;;;;;;;;;;3.90;99.90;4.50;101294.00;;;;344336;28;90837;-90
2023/02/14 00:32:25;;;;;;;;;;;3.90;99.90;4.50;101286.00;;;;349200;27;82514;-91
2023/02/14 00:32:38;;;;;;;;;;;3.90;99.90;4.40;101292.00;;;;344328;28;91546;-90
2023/02/14 00:32:50;;;;;;;;;;;3.90;99.90;4.50;101295.00;;;;346217;28;83417;-91
2023/02/14 00:33:02;;;;;;;;;;;3.90;99.90;4.50;101290.00;;;;344231;28;92301;-91
2023/02/14 00:33:13;;;;;;;;;;;3.90;99.90;4.50;101290.00;;;;344905;28;82338;-91
2023/02/14 00:33:25;;;;;;;;;;;3.90;99.90;4.50;101284.00;;;;344385;28;90215;-91
2023/02/14 00:33:37;;;;;;;;;;;3.90;99.90;4.50;101297.00;;;;344766;28;83442;-91
2023/02/14 00:33:49;;;;;;;;;;;3.90;99.90;4.50;101284.00;;;;342925;28;91347;-92
2023/02/14 00:34:01;;;;;;;;;;;3.90;99.90;4.50;101289.00;;;;347427;28;84122;-90
2023/02/14 00:34:13;;;;;;;;;;;3.80;99.90;4.50;101292.00;;;;345711;28;91528;-90
2023/02/14 00:34:25;;;;;;;;;;;3.90;99.90;4.50;101291.00;;;;347570;28;83544;-90
2023/02/14 00:34:39;;;;;;;;;;;3.90;99.90;4.40;101281.00;;;;345722;28;90823;-90
2023/02/14 00:34:51;;;;;;;;;;;3.90;99.90;4.40;101279.00;;;;347770;28;83457;-91
2023/02/14 00:35:03;;;;;;;;;;;3.90;99.90;4.30;101284.00;;;;347019;28;92350;-91
2023/02/14 00:35:15;;;;;;;;;;;3.90;99.90;4.30;101288.00;;;;344840;28;83328;-90
2023/02/14 00:35:26;;;;;;;;;;;3.90;99.90;4.30;101292.00;;;;347147;28;91185;-91
2023/02/14 00:35:38;;;;;;;;;;;3.90;99.90;4.30;101289.00;;;;344856;28;82508;-90
2023/02/14 00:35:50;;;;;;;;;;;3.90;99.90;4.20;101283.00;;;;343017;28;91616;-90
2023/02/14 00:36:03;;;;;;;;;;;3.80;99.90;4.30;101291.00;;;;347751;28;82521;-91
2023/02/14 00:36:15;;;;;;;;;;;3.80;99.90;4.30;101289.00;;;;344287;28;90483;-90
2023/02/14 00:36:27;;;;;;;;;;;3.80;99.90;4.30;101276.00;;;;347648;28;83561;-90
2023/02/14 00:36:39;;;;;;;;;;;3.80;99.90;4.30;101285.00;;;;347280;28;90565;-91
2023/02/14 00:36:50;;;;;;;;;;;3.80;99.90;4.20;101280.00;;;;344941;28;82409;-90
2023/02/14 00:37:03;;;;;;;;;;;3.80;99.90;4.20;101291.00;;;;347187;28;92246;-91
2023/02/14 00:37:15;;;;;;;;;;;3.80;99.90;4.20;101290.00;;;;347814;28;82423;-91
2023/02/14 00:37:26;;;;;;;;;;;3.80;99.90;4.20;101287.00;;;;347290;28;91301;-91
2023/02/14 00:37:38;;;;;;;;;;;3.80;99.90;4.30;101293.00;;;;347869;28;82498;-91
2023/02/14 00:37:50;;;;;;;;;;;3.80;99.90;4.30;101303.00;;;;346131;28;90507;-91
2023/02/14 00:38:02;;;;;;;;;;;3.80;99.90;4.30;101292.00;;;;345087;28;83326;-91
2023/02/14 00:38:15;;;;;;;;;;;3.80;99.90;4.30;101290.00;;;;346035;28;90472;-91
2023/02/14 00:38:26;;;;;;;;;;;3.80;99.90;4.30;101287.00;;;;346713;28;82622;-91
2023/02/14 00:38:38;;;;;;;;;;;3.70;99.90;4.30;101285.00;;;;345840;28;89742;-91
2023/02/14 00:38:50;;;;;;;;;;;3.80;99.90;4.40;101287.00;;;;347471;28;83457;-91
2023/02/14 00:39:06;;;;;;;;;;;3.70;99.90;4.50;101294.00;;;;347095;28;92565;-91
2023/02/14 00:39:18;;;;;;;;;;;3.80;99.90;4.60;101287.00;;;;345034;28;83306;-91
2023/02/14 00:39:30;;;;;;;;;;;3.80;99.90;4.60;101286.00;;;;344408;28;90297;-91
2023/02/14 00:39:41;;;;;;;;;;;3.80;99.90;4.60;101289.00;;;;346199;28;83408;-91
2023/02/14 00:39:53;;;;;;;;;;;3.80;99.90;4.60;101283.00;;;;345603;28;91194;-90
2023/02/14 00:40:06;;;;;;;;;;;3.80;99.90;4.70;101288.00;;;;344418;28;83491;-92
2023/02/14 00:40:18;;;;;;;;;;;3.80;99.90;4.70;101285.00;;;;344404;28;91459;-91
2023/02/14 00:40:29;;;;;;;;;;;3.80;99.90;4.60;101286.00;;;;346158;28;83522;-90
2023/02/14 00:40:41;;;;;;;;;;;3.80;99.90;4.40;101286.00;;;;345599;28;90459;-90
2023/02/14 00:40:53;;;;;;;;;;;3.80;99.90;4.50;101285.00;;;;346166;28;83441;-91
2023/02/14 00:41:05;;;;;;;;;;;3.80;99.90;4.40;101293.00;;;;345684;28;92449;-91
2023/02/14 00:41:19;;;;;;;;;;;3.80;99.90;4.30;101290.00;;;;347544;28;83296;-91
2023/02/14 00:41:31;;;;;;;;;;;3.80;99.90;4.30;101281.00;;;;347057;27;90745;-90
2023/02/14 00:41:43;;;;;;;;;;;3.80;99.90;4.40;101285.00;;;;347508;28;83362;-91
2023/02/14 00:41:55;;;;;;;;;;;3.80;99.90;4.30;101288.00;;;;347349;28;89986;-91
2023/02/14 00:42:07;;;;;;;;;;;3.80;99.90;4.30;101284.00;;;;346366;28;82487;-91
2023/02/14 00:42:19;;;;;;;;;;;3.80;99.90;4.40;101289.00;;;;347168;28;90264;-91
2023/02/14 00:42:31;;;;;;;;;;;3.80;99.90;4.40;101280.00;;;;347693;27;82607;-91
2023/02/14 00:42:42;;;;;;;;;;;3.80;99.90;4.40;101290.00;;;;347398;28;90175;-90
2023/02/14 00:42:54;;;;;;;;;;;3.80;99.90;4.30;101291.00;;;;346053;28;83372;-90
2023/02/14 00:43:06;;;;;;;;;;;3.80;99.90;4.30;101290.00;;;;345370;28;92433;-92
2023/02/14 00:43:18;;;;;;;;;;;3.80;99.90;4.40;101297.00;;;;344791;28;83342;-91
2023/02/14 00:43:30;;;;;;;;;;;3.80;99.90;4.30;101284.00;;;;344228;28;91622;-91
2023/02/14 00:43:42;;;;;;;;;;;3.80;99.90;4.30;101290.00;;;;344723;28;84107;-91
2023/02/14 00:43:53;;;;;;;;;;;3.70;99.90;4.40;101289.00;;;;344135;28;90257;-91
2023/02/14 00:44:05;;;;;;;;;;;3.80;99.90;4.40;101289.00;;;;346084;28;83394;-90
2023/02/14 00:44:17;;;;;;;;;;;3.80;99.90;4.40;101292.00;;;;348626;27;88501;-91
2023/02/14 00:44:29;;;;;;;;;;;3.80;99.90;4.40;101293.00;;;;346313;28;83278;-91
2023/02/14 00:44:41;;;;;;;;;;;3.80;99.90;4.40;101293.00;;;;347157;28;91616;-91
2023/02/14 00:44:52;;;;;;;;;;;3.80;99.90;4.40;101282.00;;;;346024;28;84696;-90
2023/02/14 00:45:04;;;;;;;;;;;3.80;99.90;4.40;101297.00;;;;342960;28;92456;-90
2023/02/14 00:45:17;;;;;;;;;;;3.80;99.90;4.40;101287.00;;;;347524;28;83411;-90
2023/02/14 00:45:29;;;;;;;;;;;3.80;99.90;4.40;101284.00;;;;345709;28;90388;-91
2023/02/14 00:45:41;;;;;;;;;;;3.80;99.90;4.30;101293.00;;;;346164;28;83452;-91
2023/02/14 00:45:53;;;;;;;;;;;3.70;99.90;4.30;101286.00;;;;348530;27;91157;-90
2023/02/14 00:46:05;;;;;;;;;;;3.80;99.90;4.30;101293.00;;;;347616;28;83486;-91
2023/02/14 00:46:17;;;;;;;;;;;3.70;99.90;4.30;101292.00;;;;346959;28;91364;-91
2023/02/14 00:46:29;;;;;;;;;;;3.70;99.90;4.30;101295.00;;;;347485;28;82562;-91
2023/02/14 00:46:41;;;;;;;;;;;3.70;99.90;4.30;101295.00;;;;345701;28;90351;-90
2023/02/14 00:46:52;;;;;;;;;;;3.70;99.90;4.30;101292.00;;;;346285;28;82458;-91
2023/02/14 00:47:04;;;;;;;;;;;3.70;99.90;4.30;101288.00;;;;345520;28;90140;-91
2023/02/14 00:47:16;;;;;;;;;;;3.70;99.90;4.30;101290.00;;;;347620;28;82618;-91
2023/02/14 00:47:28;;;;;;;;;;;3.70;99.90;4.20;101294.00;;;;348482;27;90573;-91
2023/02/14 00:47:39;;;;;;;;;;;3.70;99.90;4.20;101290.00;;;;348991;27;83352;-91
2023/02/14 00:47:51;;;;;;;;;;;3.70;99.90;4.20;101291.00;;;;348535;27;90883;-90
2023/02/14 00:48:03;;;;;;;;;;;3.70;99.90;4.20;101294.00;;;;346080;28;82499;-91
2023/02/14 00:48:15;;;;;;;;;;;3.70;99.90;4.20;101286.00;;;;348500;27;91679;-91
2023/02/14 00:48:27;;;;;;;;;;;3.70;99.90;4.20;101291.00;;;;347589;28;83412;-90
2023/02/14 00:48:39;;;;;;;;;;;3.70;99.90;4.20;101283.00;;;;345737;28;90637;-91
2023/02/14 00:48:50;;;;;;;;;;;3.70;99.90;4.20;101293.00;;;;348851;27;83335;-90
2023/02/14 00:49:03;;;;;;;;;;;3.70;99.90;4.20;101294.00;;;;345424;28;92277;-90
2023/02/14 00:49:14;;;;;;;;;;;3.70;99.90;4.20;101296.00;;;;346178;28;83494;-90
2023/02/14 00:49:26;;;;;;;;;;;3.70;99.90;4.20;101293.00;;;;347109;28;91846;-90
2023/02/14 00:49:38;;;;;;;;;;;3.60;99.90;4.20;101292.00;;;;346157;28;82362;-90
2023/02/14 00:49:50;;;;;;;;;;;3.60;99.90;4.30;101293.00;;;;345669;28;91501;-92
2023/02/14 00:50:03;;;;;;;;;;;3.70;99.90;4.30;101289.00;;;;346244;28;83384;-90
2023/02/14 00:50:15;;;;;;;;;;;3.60;99.90;4.30;101289.00;;;;348539;27;90448;-91
2023/02/14 00:50:27;;;;;;;;;;;3.60;99.90;4.40;101285.00;;;;344886;28;82523;-91
2023/02/14 00:50:39;;;;;;;;;;;3.70;99.90;4.40;101279.00;;;;347092;28;91228;-90
2023/02/14 00:50:51;;;;;;;;;;;3.60;99.90;4.30;101286.00;;;;347499;27;82556;-90
2023/02/14 00:51:03;;;;;;;;;;;3.70;99.90;4.30;101283.00;;;;345711;28;92142;-91
2023/02/14 00:51:14;;;;;;;;;;;3.70;99.90;4.30;101279.00;;;;347627;28;82389;-91
2023/02/14 00:51:26;;;;;;;;;;;3.70;99.90;4.30;101280.00;;;;344047;28;90574;-90
2023/02/14 00:51:38;;;;;;;;;;;3.70;99.90;4.30;101288.00;;;;347452;28;83532;-91
2023/02/14 00:51:50;;;;;;;;;;;3.70;99.90;4.30;101279.00;;;;344314;28;91954;-91
2023/02/14 00:52:02;;;;;;;;;;;3.70;99.90;4.30;101282.00;;;;346141;28;83369;-91
2023/02/14 00:52:14;;;;;;;;;;;3.70;99.90;4.30;101290.00;;;;345731;28;90442;-91
2023/02/14 00:52:26;;;;;;;;;;;3.70;99.90;4.30;101287.00;;;;346098;28;83434;-91
2023/02/14 00:52:37;;;;;;;;;;;3.70;99.90;4.30;101290.00;;;;345784;28;90153;-90
2023/02/14 00:52:49;;;;;;;;;;;3.70;99.90;4.30;101277.00;;;;346059;28;83196;-90
2023/02/14 00:53:01;;;;;;;;;;;3.70;99.90;4.20;101284.00;;;;345645;28;92916;-90
2023/02/14 00:53:13;;;;;;;;;;;3.70;99.90;4.20;101293.00;;;;344752;28;83443;-91
2023/02/14 00:53:25;;;;;;;;;;;3.60;99.90;4.20;101279.00;;;;348502;27;91138;-91
2023/02/14 00:53:37;;;;;;;;;;;3.60;99.90;4.20;101278.00;;;;347568;27;82218;-91
2023/02/14 00:53:49;;;;;;;;;;;3.60;99.90;4.30;101275.00;;;;344314;28;91509;-90
2023/02/14 00:54:02;;;;;;;;;;;3.60;99.90;4.30;101292.00;;;;344768;28;83090;-90
2023/02/14 00:54:14;;;;;;;;;;;3.60;99.90;4.30;101284.00;;;;347045;27;91630;-90
2023/02/14 00:54:25;;;;;;;;;;;3.60;99.90;4.30;101281.00;;;;346009;28;83512;-90
2023/02/14 00:54:37;;;;;;;;;;;3.60;99.90;4.40;101279.00;;;;348439;27;90247;-90
2023/02/14 00:54:49;;;;;;;;;;;3.60;99.90;4.40;101283.00;;;;345749;28;83564;-90
2023/02/14 00:55:01;;;;;;;;;;;3.60;99.90;4.30;101278.00;;;;346818;28;92552;-91
2023/02/14 00:55:13;;;;;;;;;;;3.60;99.90;4.30;101278.00;;;;344765;28;83498;-90
2023/02/14 00:55:24;;;;;;;;;;;3.60;99.90;4.20;101284.00;;;;345773;28;91205;-90
2023/02/14 00:55:36;;;;;;;;;;;3.60;99.90;4.10;101280.00;;;;348999;27;83220;-91
2023/02/14 00:55:48;;;;;;;;;;;3.60;99.90;4.20;101285.00;;;;348529;27;90096;-91
2023/02/14 00:56:00;;;;;;;;;;;3.60;99.90;4.20;101282.00;;;;346261;28;83258;-90
2023/02/14 00:56:12;;;;;;;;;;;3.60;99.90;4.20;101291.00;;;;344266;28;90166;-91
2023/02/14 00:56:24;;;;;;;;;;;3.60;99.90;4.20;101281.00;;;;344807;28;83546;-91
2023/02/14 00:56:35;;;;;;;;;;;3.60;99.90;4.20;101277.00;;;;345733;28;91237;-90
2023/02/14 00:56:47;;;;;;;;;;;3.60;99.90;4.20;101282.00;;;;344701;28;83324;-90
2023/02/14 00:56:59;;;;;;;;;;;3.60;99.90;4.30;101276.00;;;;347107;28;91392;-91
2023/02/14 00:57:11;;;;;;;;;;;3.60;99.90;4.30;101276.00;;;;347527;28;83998;-91
2023/02/14 00:57:23;;;;;;;;;;;3.60;99.90;4.40;101276.00;;;;345720;28;91450;-90
2023/02/14 00:57:34;;;;;;;;;;;3.60;99.90;4.40;101278.00;;;;346169;28;82454;-91
2023/02/14 00:57:46;;;;;;;;;;;3.60;99.90;4.40;101274.00;;;;347165;28;88902;-91
2023/02/14 00:57:58;;;;;;;;;;;3.60;99.90;4.40;101277.00;;;;348889;27;83447;-90
2023/02/14 00:58:10;;;;;;;;;;;3.60;99.90;4.50;101280.00;;;;346873;27;91809;-90
2023/02/14 00:58:21;;;;;;;;;;;3.60;99.90;4.50;101279.00;;;;348791;27;83511;-90
2023/02/14 00:58:33;;;;;;;;;;;3.60;99.90;4.50;101280.00;;;;344419;28;90752;-91
2023/02/14 00:58:45;;;;;;;;;;;3.70;99.90;4.40;101273.00;;;;346072;28;82564;-91
2023/02/14 00:58:57;;;;;;;;;;;3.70;99.90;4.50;101280.00;;;;347033;28;90790;-91
2023/02/14 00:59:09;;;;;;;;;;;3.70;99.90;4.50;101283.00;;;;344783;28;83511;-90
2023/02/14 00:59:20;;;;;;;;;;;3.70;99.90;4.60;101275.00;;;;346912;28;90599;-91
2023/02/14 00:59:32;;;;;;;;;;;3.70;99.90;4.60;101274.00;;;;346172;28;83306;-91
2023/02/14 00:59:44;;;;;;;;;;;3.70;99.90;4.60;101281.00;;;;347088;28;90178;-91
2023/02/14 00:59:56;;;;;;;;;;;3.70;99.90;4.60;101275.00;;;;348963;27;83444;-90
2023/02/14 01:00:08;;;;;;;;;;;3.70;99.90;4.50;101276.00;;;;347042;28;91353;-90
2023/02/14 01:00:20;;;;;;;;;;;3.70;99.90;4.50;101270.00;;;;345989;28;83301;-91
2023/02/14 01:00:32;;;;;;;;;;;3.70;99.90;4.50;101276.00;;;;348483;27;90438;-91
2023/02/14 01:00:44;;;;;;;;;;;3.70;99.90;4.60;101272.00;;;;347510;27;83366;-90
2023/02/14 01:00:56;;;;;;;;;;;3.70;99.90;4.50;101284.00;;;;345651;28;92516;-90
2023/02/14 01:01:08;;;;;;;;;;;3.70;99.90;4.50;101279.00;;;;346097;28;83453;-91
2023/02/14 01:01:20;;;;;;;;;;;3.70;99.90;4.40;101281.00;;;;345724;28;91057;-90
2023/02/14 01:01:32;;;;;;;;;;;3.80;99.90;4.40;101273.00;;;;346123;28;83504;-90
2023/02/14 01:01:44;;;;;;;;;;;3.80;99.90;4.30;101274.00;;;;345648;28;91424;-90
2023/02/14 01:01:56;;;;;;;;;;;3.70;99.90;4.30;101270.00;;;;347626;28;82355;-91
2023/02/14 01:02:08;;;;;;;;;;;3.70;99.90;4.30;101274.00;;;;345613;28;90905;-90
2023/02/14 01:02:19;;;;;;;;;;;3.70;99.90;4.30;101277.00;;;;347540;28;83424;-90
2023/02/14 01:02:31;;;;;;;;;;;3.70;99.90;4.30;101273.00;;;;347104;28;90319;-91
2023/02/14 01:02:43;;;;;;;;;;;3.70;99.90;4.30;101276.00;;;;346126;28;82394;-91